sensor_id;sensor_type;location;lat;lon;timestamp;temperature;humidity
3053;DHT22;1536;51.098;6.414;2023-01-15T00:01:54;9.50;99.90
3053;DHT22;1536;51.098;6.414;2023-01-15T00:04:21;9.50;99.90
3053;DHT22;1536;51.098;6.414;2023-01-15T00:06:48;9.40;99.90
3053;DHT22;1536;51.098;6.414;2023-01-15T00:09:15;9.40;99.90
3053;DHT22;1536;51.098;6.414;2023-01-15T00:11:42;9.40;99.90
3053;DHT22;1536;51.098;6.414;2023-01-15T00:14:08;9.40;99.90
3053;DHT22;1536;51.098;6.414;2023-01-15T00:16:38;9.40;99.90
3053;DHT22;1536;51.098;6.414;2023-01-15T00:19:05;9.30;99.90
3053;DHT22;1536;51.098;6.414;2023-01-15T00:21:35;9.20;99.90
3053;DHT22;1536;51.098;6.414;2023-01-15T00:24:01;9.20;99.90
3053;DHT22;1536;51.098;6.414;2023-01-15T00:26:46;9.20;99.90
3053;DHT22;1536;51.098;6.414;2023-01-15T00:29:31;9.20;99.90
3053;DHT22;1536;51.098;6.414;2023-01-15T00:32:01;9.10;99.90
3053;DHT22;1536;51.098;6.414;2023-01-15T00:34:29;9.10;99.90
3053;DHT22;1536;51.098;6.414;2023-01-15T00:36:56;9.10;99.90
3053;DHT22;1536;51.098;6.414;2023-01-15T00:39:23;9.10;99.90
3053;DHT22;1536;51.098;6.414;2023-01-15T00:41:51;9.10;99.90
3053;DHT22;1536;51.098;6.414;2023-01-15T00:44:18;9.00;99.90
3053;DHT22;1536;51.098;6.414;2023-01-15T00:46:45;9.00;99.90
3053;DHT22;1536;51.098;6.414;2023-01-15T00:49:13;9.00;99.90
3053;DHT22;1536;51.098;6.414;2023-01-15T00:51:40;9.00;99.90
3053;DHT22;1536;51.098;6.414;2023-01-15T00:54:07;9.00;99.90
3053;DHT22;1536;51.098;6.414;2023-01-15T00:56:33;8.90;99.90
3053;DHT22;1536;51.098;6.414;2023-01-15T00:59:03;8.90;99.90
3053;DHT22;1536;51.098;6.414;2023-01-15T01:01:30;8.90;99.90
3053;DHT22;1536;51.098;6.414;2023-01-15T01:03:57;8.90;99.90
3053;DHT22;1536;51.098;6.414;2023-01-15T01:06:26;8.90;99.90
3053;DHT22;1536;51.098;6.414;2023-01-15T01:08:53;8.90;99.90
3053;DHT22;1536;51.098;6.414;2023-01-15T01:11:22;8.90;99.90
3053;DHT22;1536;51.098;6.414;2023-01-15T01:13:51;8.90;99.90
3053;DHT22;1536;51.098;6.414;2023-01-15T01:16:27;8.90;99.90
3053;DHT22;1536;51.098;6.414;2023-01-15T01:18:55;8.90;99.90
3053;DHT22;1536;51.098;6.414;2023-01-15T01:21:22;8.80;99.90
3053;DHT22;1536;51.098;6.414;2023-01-15T01:23:50;8.80;99.90
3053;DHT22;1536;51.098;6.414;2023-01-15T01:26:17;8.80;99.90
3053;DHT22;1536;51.098;6.414;2023-01-15T01:28:48;8.80;99.90
3053;DHT22;1536;51.098;6.414;2023-01-15T01:31:15;8.80;99.90
3053;DHT22;1536;51.098;6.414;2023-01-15T01:33:42;8.80;99.90
3053;DHT22;1536;51.098;6.414;2023-01-15T01:36:08;8.80;99.90
3053;DHT22;1536;51.098;6.414;2023-01-15T01:38:35;8.80;99.90
3053;DHT22;1536;51.098;6.414;2023-01-15T01:41:04;8.80;99.90
3053;DHT22;1536;51.098;6.414;2023-01-15T01:43:48;8.70;99.90
3053;DHT22;1536;51.098;6.414;2023-01-15T01:46:16;8.70;99.90
3053;DHT22;1536;51.098;6.414;2023-01-15T01:48:43;8.70;99.90
3053;DHT22;1536;51.098;6.414;2023-01-15T01:51:11;8.70;99.90
3053;DHT22;1536;51.098;6.414;2023-01-15T01:53:38;8.70;99.90
3053;DHT22;1536;51.098;6.414;2023-01-15T01:56:08;8.70;99.90
3053;DHT22;1536;51.098;6.414;2023-01-15T01:58:37;8.70;99.90
3053;DHT22;1536;51.098;6.414;2023-01-15T02:01:04;8.80;99.90
3053;DHT22;1536;51.098;6.414;2023-01-15T02:03:34;8.80;99.90
3053;DHT22;1536;51.098;6.414;2023-01-15T02:06:06;8.80;99.90
3053;DHT22;1536;51.098;6.414;2023-01-15T02:08:34;8.80;99.90
3053;DHT22;1536;51.098;6.414;2023-01-15T02:11:05;8.80;99.90
3053;DHT22;1536;51.098;6.414;2023-01-15T02:13:36;8.80;99.90
3053;DHT22;1536;51.098;6.414;2023-01-15T02:16:13;8.80;99.90
3053;DHT22;1536;51.098;6.414;2023-01-15T02:18:44;8.80;99.90
3053;DHT22;1536;51.098;6.414;2023-01-15T02:21:21;8.70;99.90
3053;DHT22;1536;51.098;6.414;2023-01-15T02:23:59;8.70;99.90
3053;DHT22;1536;51.098;6.414;2023-01-15T02:26:51;8.80;99.90
3053;DHT22;1536;51.098;6.414;2023-01-15T02:29:26;8.80;99.90
3053;DHT22;1536;51.098;6.414;2023-01-15T02:31:55;8.80;99.90
3053;DHT22;1536;51.098;6.414;2023-01-15T02:34:26;8.80;99.90
3053;DHT22;1536;51.098;6.414;2023-01-15T02:37:05;8.80;99.90
3053;DHT22;1536;51.098;6.414;2023-01-15T02:39:35;8.80;99.90
3053;DHT22;1536;51.098;6.414;2023-01-15T02:42:08;8.80;99.90
3053;DHT22;1536;51.098;6.414;2023-01-15T02:44:39;8.70;99.90
3053;DHT22;1536;51.098;6.414;2023-01-15T02:47:08;8.80;99.90
3053;DHT22;1536;51.098;6.414;2023-01-15T02:49:37;8.80;99.90
3053;DHT22;1536;51.098;6.414;2023-01-15T02:52:07;8.80;99.90
3053;DHT22;1536;51.098;6.414;2023-01-15T02:54:39;8.80;99.90
3053;DHT22;1536;51.098;6.414;2023-01-15T02:57:09;8.80;99.90
3053;DHT22;1536;51.098;6.414;2023-01-15T02:59:39;8.80;99.90
3053;DHT22;1536;51.098;6.414;2023-01-15T03:02:10;8.80;99.90
3053;DHT22;1536;51.098;6.414;2023-01-15T03:04:42;8.80;99.90
3053;DHT22;1536;51.098;6.414;2023-01-15T03:07:14;8.70;99.90
3053;DHT22;1536;51.098;6.414;2023-01-15T03:09:42;8.70;99.90
3053;DHT22;1536;51.098;6.414;2023-01-15T03:12:14;8.70;99.90
3053;DHT22;1536;51.098;6.414;2023-01-15T03:14:45;8.70;99.90
3053;DHT22;1536;51.098;6.414;2023-01-15T03:17:18;8.70;99.90
3053;DHT22;1536;51.098;6.414;2023-01-15T03:19:49;8.70;99.90
3053;DHT22;1536;51.098;6.414;2023-01-15T03:22:20;8.70;99.90
3053;DHT22;1536;51.098;6.414;2023-01-15T03:24:51;8.70;99.90
3053;DHT22;1536;51.098;6.414;2023-01-15T03:27:21;8.70;99.90
3053;DHT22;1536;51.098;6.414;2023-01-15T03:29:51;8.70;99.90
3053;DHT22;1536;51.098;6.414;2023-01-15T03:32:19;8.70;99.90
3053;DHT22;1536;51.098;6.414;2023-01-15T03:34:49;8.70;99.90
3053;DHT22;1536;51.098;6.414;2023-01-15T03:37:17;8.70;99.90
3053;DHT22;1536;51.098;6.414;2023-01-15T03:39:44;8.70;99.90
3053;DHT22;1536;51.098;6.414;2023-01-15T03:42:33;8.70;99.90
3053;DHT22;1536;51.098;6.414;2023-01-15T03:45:07;8.70;99.90
3053;DHT22;1536;51.098;6.414;2023-01-15T03:47:44;8.60;99.90
3053;DHT22;1536;51.098;6.414;2023-01-15T03:50:18;8.60;99.90
3053;DHT22;1536;51.098;6.414;2023-01-15T03:52:51;8.60;99.90
3053;DHT22;1536;51.098;6.414;2023-01-15T03:55:22;8.60;99.90
3053;DHT22;1536;51.098;6.414;2023-01-15T03:57:56;8.50;99.90
3053;DHT22;1536;51.098;6.414;2023-01-15T04:00:26;8.60;99.90
3053;DHT22;1536;51.098;6.414;2023-01-15T04:02:55;8.60;99.90
3053;DHT22;1536;51.098;6.414;2023-01-15T04:05:23;8.60;99.90
3053;DHT22;1536;51.098;6.414;2023-01-15T04:07:52;8.60;99.90
3053;DHT22;1536;51.098;6.414;2023-01-15T04:10:20;8.60;99.90
3053;DHT22;1536;51.098;6.414;2023-01-15T04:12:46;8.60;99.90
3053;DHT22;1536;51.098;6.414;2023-01-15T04:15:15;8.50;99.90
3053;DHT22;1536;51.098;6.414;2023-01-15T04:17:42;8.50;99.90
3053;DHT22;1536;51.098;6.414;2023-01-15T04:20:10;8.60;99.90
3053;DHT22;1536;51.098;6.414;2023-01-15T04:22:37;8.60;99.90
3053;DHT22;1536;51.098;6.414;2023-01-15T04:25:05;8.60;99.90
3053;DHT22;1536;51.098;6.414;2023-01-15T04:27:32;8.60;99.90
3053;DHT22;1536;51.098;6.414;2023-01-15T04:29:59;8.60;99.90
3053;DHT22;1536;51.098;6.414;2023-01-15T04:32:27;8.60;99.90
3053;DHT22;1536;51.098;6.414;2023-01-15T04:34:54;8.60;99.90
3053;DHT22;1536;51.098;6.414;2023-01-15T04:37:21;8.60;99.90
3053;DHT22;1536;51.098;6.414;2023-01-15T04:39:48;8.60;99.90
3053;DHT22;1536;51.098;6.414;2023-01-15T04:42:14;8.60;99.90
3053;DHT22;1536;51.098;6.414;2023-01-15T04:44:58;8.60;99.90
3053;DHT22;1536;51.098;6.414;2023-01-15T04:47:28;8.60;99.90
3053;DHT22;1536;51.098;6.414;2023-01-15T04:49:55;8.60;99.90
3053;DHT22;1536;51.098;6.414;2023-01-15T04:52:22;8.60;99.90
3053;DHT22;1536;51.098;6.414;2023-01-15T04:54:48;8.60;99.90
3053;DHT22;1536;51.098;6.414;2023-01-15T04:57:15;8.60;99.90
3053;DHT22;1536;51.098;6.414;2023-01-15T04:59:42;8.60;99.90
3053;DHT22;1536;51.098;6.414;2023-01-15T05:02:08;8.60;99.90
3053;DHT22;1536;51.098;6.414;2023-01-15T05:04:37;8.60;99.90
3053;DHT22;1536;51.098;6.414;2023-01-15T05:07:04;8.60;99.90
3053;DHT22;1536;51.098;6.414;2023-01-15T05:09:31;8.60;99.90
3053;DHT22;1536;51.098;6.414;2023-01-15T05:11:58;8.60;99.90
3053;DHT22;1536;51.098;6.414;2023-01-15T05:14:25;8.50;99.90
3053;DHT22;1536;51.098;6.414;2023-01-15T05:16:51;8.50;99.90
3053;DHT22;1536;51.098;6.414;2023-01-15T05:19:18;8.50;99.90
3053;DHT22;1536;51.098;6.414;2023-01-15T05:21:47;8.50;99.90
3053;DHT22;1536;51.098;6.414;2023-01-15T05:24:15;8.50;99.90
3053;DHT22;1536;51.098;6.414;2023-01-15T05:26:43;8.50;99.90
3053;DHT22;1536;51.098;6.414;2023-01-15T05:29:10;8.50;99.90
3053;DHT22;1536;51.098;6.414;2023-01-15T05:31:38;8.50;99.90
3053;DHT22;1536;51.098;6.414;2023-01-15T05:34:06;8.50;99.90
3053;DHT22;1536;51.098;6.414;2023-01-15T05:36:33;8.50;99.90
3053;DHT22;1536;51.098;6.414;2023-01-15T05:39:03;8.50;99.90
3053;DHT22;1536;51.098;6.414;2023-01-15T05:41:30;8.50;99.90
3053;DHT22;1536;51.098;6.414;2023-01-15T05:44:17;8.50;99.90
3053;DHT22;1536;51.098;6.414;2023-01-15T05:46:45;8.50;99.90
3053;DHT22;1536;51.098;6.414;2023-01-15T05:49:14;8.50;99.90
3053;DHT22;1536;51.098;6.414;2023-01-15T05:51:42;8.50;99.90
3053;DHT22;1536;51.098;6.414;2023-01-15T05:54:13;8.50;99.90
3053;DHT22;1536;51.098;6.414;2023-01-15T05:56:40;8.50;99.90
3053;DHT22;1536;51.098;6.414;2023-01-15T05:59:08;8.50;99.90
3053;DHT22;1536;51.098;6.414;2023-01-15T06:01:35;8.50;99.90
3053;DHT22;1536;51.098;6.414;2023-01-15T06:04:04;8.50;99.90
3053;DHT22;1536;51.098;6.414;2023-01-15T06:06:31;8.50;99.90
3053;DHT22;1536;51.098;6.414;2023-01-15T06:08:59;8.50;99.90
3053;DHT22;1536;51.098;6.414;2023-01-15T06:11:27;8.50;99.90
3053;DHT22;1536;51.098;6.414;2023-01-15T06:13:54;8.50;99.90
3053;DHT22;1536;51.098;6.414;2023-01-15T06:16:21;8.40;99.90
3053;DHT22;1536;51.098;6.414;2023-01-15T06:18:48;8.40;99.90
3053;DHT22;1536;51.098;6.414;2023-01-15T06:21:15;8.40;99.90
3053;DHT22;1536;51.098;6.414;2023-01-15T06:23:43;8.40;99.90
3053;DHT22;1536;51.098;6.414;2023-01-15T06:26:12;8.40;99.90
3053;DHT22;1536;51.098;6.414;2023-01-15T06:28:41;8.40;99.90
3053;DHT22;1536;51.098;6.414;2023-01-15T06:31:09;8.40;99.90
3053;DHT22;1536;51.098;6.414;2023-01-15T06:33:36;8.40;99.90
3053;DHT22;1536;51.098;6.414;2023-01-15T06:36:04;8.40;99.90
3053;DHT22;1536;51.098;6.414;2023-01-15T06:38:31;8.40;99.90
3053;DHT22;1536;51.098;6.414;2023-01-15T06:40:59;8.40;99.90
3053;DHT22;1536;51.098;6.414;2023-01-15T06:43:25;8.40;99.90
3053;DHT22;1536;51.098;6.414;2023-01-15T06:46:11;8.40;99.90
3053;DHT22;1536;51.098;6.414;2023-01-15T06:48:55;8.40;99.90
3053;DHT22;1536;51.098;6.414;2023-01-15T06:51:22;8.40;99.90
3053;DHT22;1536;51.098;6.414;2023-01-15T06:53:49;8.40;99.90
3053;DHT22;1536;51.098;6.414;2023-01-15T06:56:16;8.40;99.90
3053;DHT22;1536;51.098;6.414;2023-01-15T06:58:43;8.40;99.90
3053;DHT22;1536;51.098;6.414;2023-01-15T07:01:13;8.40;99.90
3053;DHT22;1536;51.098;6.414;2023-01-15T07:03:40;8.40;99.90
3053;DHT22;1536;51.098;6.414;2023-01-15T07:06:08;8.40;99.90
3053;DHT22;1536;51.098;6.414;2023-01-15T07:08:35;8.40;99.90
3053;DHT22;1536;51.098;6.414;2023-01-15T07:11:03;8.30;99.90
3053;DHT22;1536;51.098;6.414;2023-01-15T07:13:30;8.40;99.90
3053;DHT22;1536;51.098;6.414;2023-01-15T07:15:58;8.30;99.90
3053;DHT22;1536;51.098;6.414;2023-01-15T07:18:27;8.30;99.90
3053;DHT22;1536;51.098;6.414;2023-01-15T07:20:54;8.30;99.90
3053;DHT22;1536;51.098;6.414;2023-01-15T07:23:21;8.30;99.90
3053;DHT22;1536;51.098;6.414;2023-01-15T07:25:50;8.30;99.90
3053;DHT22;1536;51.098;6.414;2023-01-15T07:28:17;8.30;99.90
3053;DHT22;1536;51.098;6.414;2023-01-15T07:30:44;8.30;99.90
3053;DHT22;1536;51.098;6.414;2023-01-15T07:33:10;8.30;99.90
3053;DHT22;1536;51.098;6.414;2023-01-15T07:35:38;8.30;99.90
3053;DHT22;1536;51.098;6.414;2023-01-15T07:38:05;8.30;99.90
3053;DHT22;1536;51.098;6.414;2023-01-15T07:40:32;8.30;99.90
3053;DHT22;1536;51.098;6.414;2023-01-15T07:42:59;8.30;99.90
3053;DHT22;1536;51.098;6.414;2023-01-15T07:45:43;8.30;99.90
3053;DHT22;1536;51.098;6.414;2023-01-15T07:48:27;8.30;99.90
3053;DHT22;1536;51.098;6.414;2023-01-15T07:51:12;8.30;99.90
3053;DHT22;1536;51.098;6.414;2023-01-15T07:53:39;8.20;99.90
3053;DHT22;1536;51.098;6.414;2023-01-15T07:56:07;8.20;99.90
3053;DHT22;1536;51.098;6.414;2023-01-15T07:58:34;8.20;99.90
3053;DHT22;1536;51.098;6.414;2023-01-15T08:01:00;8.20;99.90
3053;DHT22;1536;51.098;6.414;2023-01-15T08:03:28;8.20;99.90
3053;DHT22;1536;51.098;6.414;2023-01-15T08:05:54;8.20;99.90
3053;DHT22;1536;51.098;6.414;2023-01-15T08:08:22;8.10;99.90
3053;DHT22;1536;51.098;6.414;2023-01-15T08:10:49;8.10;99.90
3053;DHT22;1536;51.098;6.414;2023-01-15T08:13:34;8.10;99.90
3053;DHT22;1536;51.098;6.414;2023-01-15T08:16:18;8.10;99.90
3053;DHT22;1536;51.098;6.414;2023-01-15T08:18:45;8.00;99.90
3053;DHT22;1536;51.098;6.414;2023-01-15T08:21:13;8.00;99.90
3053;DHT22;1536;51.098;6.414;2023-01-15T08:23:41;8.00;99.90
3053;DHT22;1536;51.098;6.414;2023-01-15T08:26:11;8.00;99.90
3053;DHT22;1536;51.098;6.414;2023-01-15T08:28:37;7.90;99.90
3053;DHT22;1536;51.098;6.414;2023-01-15T08:31:05;7.90;99.90
3053;DHT22;1536;51.098;6.414;2023-01-15T08:33:32;7.90;99.90
3053;DHT22;1536;51.098;6.414;2023-01-15T08:35:59;7.90;99.90
3053;DHT22;1536;51.098;6.414;2023-01-15T08:38:26;7.90;99.90
3053;DHT22;1536;51.098;6.414;2023-01-15T08:40:54;7.90;99.90
3053;DHT22;1536;51.098;6.414;2023-01-15T08:43:24;7.90;99.90
3053;DHT22;1536;51.098;6.414;2023-01-15T08:45:51;7.80;99.90
3053;DHT22;1536;51.098;6.414;2023-01-15T08:48:18;7.80;99.90
3053;DHT22;1536;51.098;6.414;2023-01-15T08:50:45;7.80;99.90
3053;DHT22;1536;51.098;6.414;2023-01-15T08:53:11;7.80;99.90
3053;DHT22;1536;51.098;6.414;2023-01-15T08:55:38;7.70;99.90
3053;DHT22;1536;51.098;6.414;2023-01-15T08:58:06;7.70;99.90
3053;DHT22;1536;51.098;6.414;2023-01-15T09:00:33;7.70;99.90
3053;DHT22;1536;51.098;6.414;2023-01-15T09:03:00;7.70;99.90
3053;DHT22;1536;51.098;6.414;2023-01-15T09:05:26;7.70;99.90
3053;DHT22;1536;51.098;6.414;2023-01-15T09:07:53;7.60;99.90
3053;DHT22;1536;51.098;6.414;2023-01-15T09:10:20;7.70;99.90
3053;DHT22;1536;51.098;6.414;2023-01-15T09:12:47;7.70;99.90
3053;DHT22;1536;51.098;6.414;2023-01-15T09:15:16;7.60;99.90
3053;DHT22;1536;51.098;6.414;2023-01-15T09:17:42;7.70;99.90
3053;DHT22;1536;51.098;6.414;2023-01-15T09:20:11;7.60;99.90
3053;DHT22;1536;51.098;6.414;2023-01-15T09:22:39;7.60;99.90
3053;DHT22;1536;51.098;6.414;2023-01-15T09:25:06;7.70;99.90
3053;DHT22;1536;51.098;6.414;2023-01-15T09:27:33;7.70;99.90
3053;DHT22;1536;51.098;6.414;2023-01-15T09:30:03;7.70;99.90
3053;DHT22;1536;51.098;6.414;2023-01-15T09:32:31;7.70;99.90
3053;DHT22;1536;51.098;6.414;2023-01-15T09:34:58;7.70;99.90
3053;DHT22;1536;51.098;6.414;2023-01-15T09:37:25;7.70;99.90
3053;DHT22;1536;51.098;6.414;2023-01-15T09:39:52;7.70;99.90
3053;DHT22;1536;51.098;6.414;2023-01-15T09:42:39;7.80;99.90
3053;DHT22;1536;51.098;6.414;2023-01-15T09:45:22;7.80;99.90
3053;DHT22;1536;51.098;6.414;2023-01-15T09:50:57;7.90;99.90
3053;DHT22;1536;51.098;6.414;2023-01-15T09:53:52;7.90;99.90
3053;DHT22;1536;51.098;6.414;2023-01-15T09:56:24;7.90;99.90
3053;DHT22;1536;51.098;6.414;2023-01-15T09:58:52;7.90;99.90
3053;DHT22;1536;51.098;6.414;2023-01-15T10:01:25;7.90;99.90
3053;DHT22;1536;51.098;6.414;2023-01-15T10:03:58;7.90;99.90
3053;DHT22;1536;51.098;6.414;2023-01-15T10:06:28;7.90;99.90
3053;DHT22;1536;51.098;6.414;2023-01-15T10:09:01;8.00;99.90
3053;DHT22;1536;51.098;6.414;2023-01-15T10:11:42;8.00;99.90
3053;DHT22;1536;51.098;6.414;2023-01-15T10:14:34;8.00;99.90
3053;DHT22;1536;51.098;6.414;2023-01-15T10:17:08;8.00;99.90
3053;DHT22;1536;51.098;6.414;2023-01-15T10:19:42;8.00;99.90
3053;DHT22;1536;51.098;6.414;2023-01-15T10:22:15;8.00;99.90
3053;DHT22;1536;51.098;6.414;2023-01-15T10:24:53;8.00;99.90
3053;DHT22;1536;51.098;6.414;2023-01-15T10:27:22;8.10;99.90
3053;DHT22;1536;51.098;6.414;2023-01-15T10:29:53;8.10;99.90
3053;DHT22;1536;51.098;6.414;2023-01-15T10:32:33;8.10;99.90
3053;DHT22;1536;51.098;6.414;2023-01-15T10:35:20;8.10;99.90
3053;DHT22;1536;51.098;6.414;2023-01-15T10:37:53;8.10;99.90
3053;DHT22;1536;51.098;6.414;2023-01-15T10:43:39;8.10;99.90
3053;DHT22;1536;51.098;6.414;2023-01-15T10:46:11;8.20;99.90
3053;DHT22;1536;51.098;6.414;2023-01-15T10:48:41;8.20;99.90
3053;DHT22;1536;51.098;6.414;2023-01-15T10:51:15;8.20;99.90
3053;DHT22;1536;51.098;6.414;2023-01-15T10:53:46;8.20;99.90
3053;DHT22;1536;51.098;6.414;2023-01-15T10:56:17;8.30;99.90
3053;DHT22;1536;51.098;6.414;2023-01-15T10:58:49;8.30;99.90
3053;DHT22;1536;51.098;6.414;2023-01-15T11:01:19;8.40;99.90
3053;DHT22;1536;51.098;6.414;2023-01-15T11:03:48;8.30;99.90
3053;DHT22;1536;51.098;6.414;2023-01-15T11:06:18;8.30;99.90
3053;DHT22;1536;51.098;6.414;2023-01-15T11:08:49;8.30;99.90
3053;DHT22;1536;51.098;6.414;2023-01-15T11:11:21;8.30;99.90
3053;DHT22;1536;51.098;6.414;2023-01-15T11:14:08;8.40;99.90
3053;DHT22;1536;51.098;6.414;2023-01-15T11:16:52;8.40;99.90
3053;DHT22;1536;51.098;6.414;2023-01-15T11:19:39;8.50;99.90
3053;DHT22;1536;51.098;6.414;2023-01-15T11:22:10;8.50;99.90
3053;DHT22;1536;51.098;6.414;2023-01-15T11:24:44;8.50;99.90
3053;DHT22;1536;51.098;6.414;2023-01-15T11:27:14;8.50;99.90
3053;DHT22;1536;51.098;6.414;2023-01-15T11:29:43;8.50;99.90
3053;DHT22;1536;51.098;6.414;2023-01-15T11:32:24;8.50;99.90
3053;DHT22;1536;51.098;6.414;2023-01-15T11:34:53;8.50;99.90
3053;DHT22;1536;51.098;6.414;2023-01-15T11:37:21;8.50;99.90
3053;DHT22;1536;51.098;6.414;2023-01-15T11:39:52;8.50;99.90
3053;DHT22;1536;51.098;6.414;2023-01-15T11:42:19;8.50;99.90
3053;DHT22;1536;51.098;6.414;2023-01-15T11:45:12;8.50;99.90
3053;DHT22;1536;51.098;6.414;2023-01-15T11:47:57;8.50;99.90
3053;DHT22;1536;51.098;6.414;2023-01-15T11:50:39;8.50;99.90
3053;DHT22;1536;51.098;6.414;2023-01-15T11:53:19;8.50;99.90
3053;DHT22;1536;51.098;6.414;2023-01-15T11:55:54;8.50;99.90
3053;DHT22;1536;51.098;6.414;2023-01-15T11:58:26;8.50;99.90
3053;DHT22;1536;51.098;6.414;2023-01-15T12:00:53;8.50;99.90
3053;DHT22;1536;51.098;6.414;2023-01-15T12:03:24;8.50;99.90
3053;DHT22;1536;51.098;6.414;2023-01-15T12:05:55;8.50;99.90
3053;DHT22;1536;51.098;6.414;2023-01-15T12:08:35;8.60;99.90
3053;DHT22;1536;51.098;6.414;2023-01-15T12:11:12;8.50;99.90
3053;DHT22;1536;51.098;6.414;2023-01-15T12:13:50;8.60;99.90
3053;DHT22;1536;51.098;6.414;2023-01-15T12:16:26;8.60;99.90
3053;DHT22;1536;51.098;6.414;2023-01-15T12:18:58;8.60;99.90
3053;DHT22;1536;51.098;6.414;2023-01-15T12:24:51;8.60;99.90
3053;DHT22;1536;51.098;6.414;2023-01-15T12:27:42;8.60;99.90
3053;DHT22;1536;51.098;6.414;2023-01-15T12:30:23;8.60;99.90
3053;DHT22;1536;51.098;6.414;2023-01-15T12:32:57;8.60;99.90
3053;DHT22;1536;51.098;6.414;2023-01-15T12:35:34;8.60;99.90
3053;DHT22;1536;51.098;6.414;2023-01-15T12:38:09;8.60;99.90
3053;DHT22;1536;51.098;6.414;2023-01-15T12:40:44;8.70;99.90
3053;DHT22;1536;51.098;6.414;2023-01-15T12:43:14;8.70;99.90
3053;DHT22;1536;51.098;6.414;2023-01-15T12:46:02;8.70;99.90
3053;DHT22;1536;51.098;6.414;2023-01-15T12:48:36;8.70;99.90
3053;DHT22;1536;51.098;6.414;2023-01-15T12:51:07;8.70;99.90
3053;DHT22;1536;51.098;6.414;2023-01-15T12:53:39;8.70;99.90
3053;DHT22;1536;51.098;6.414;2023-01-15T12:56:15;8.70;99.90
3053;DHT22;1536;51.098;6.414;2023-01-15T12:58:48;8.70;99.90
3053;DHT22;1536;51.098;6.414;2023-01-15T13:01:21;8.70;99.90
3053;DHT22;1536;51.098;6.414;2023-01-15T13:03:57;8.80;99.90
3053;DHT22;1536;51.098;6.414;2023-01-15T13:06:25;8.80;99.90
3053;DHT22;1536;51.098;6.414;2023-01-15T13:08:58;8.80;99.90
3053;DHT22;1536;51.098;6.414;2023-01-15T13:11:31;8.80;99.90
3053;DHT22;1536;51.098;6.414;2023-01-15T13:13:58;8.80;99.90
3053;DHT22;1536;51.098;6.414;2023-01-15T13:16:39;8.80;99.90
3053;DHT22;1536;51.098;6.414;2023-01-15T13:19:28;8.90;99.90
3053;DHT22;1536;51.098;6.414;2023-01-15T13:22:02;8.90;99.90
3053;DHT22;1536;51.098;6.414;2023-01-15T13:24:53;8.80;99.90
3053;DHT22;1536;51.098;6.414;2023-01-15T13:27:40;8.90;99.90
3053;DHT22;1536;51.098;6.414;2023-01-15T13:30:20;8.80;99.90
3053;DHT22;1536;51.098;6.414;2023-01-15T13:32:54;8.80;99.90
3053;DHT22;1536;51.098;6.414;2023-01-15T13:35:28;8.80;99.90
3053;DHT22;1536;51.098;6.414;2023-01-15T13:37:57;8.80;99.90
3053;DHT22;1536;51.098;6.414;2023-01-15T13:40:28;8.80;99.90
3053;DHT22;1536;51.098;6.414;2023-01-15T13:42:59;8.80;99.90
3053;DHT22;1536;51.098;6.414;2023-01-15T13:45:35;8.80;99.90
3053;DHT22;1536;51.098;6.414;2023-01-15T13:48:06;8.80;99.90
3053;DHT22;1536;51.098;6.414;2023-01-15T13:50:35;8.80;99.90
3053;DHT22;1536;51.098;6.414;2023-01-15T13:53:06;8.80;99.90
3053;DHT22;1536;51.098;6.414;2023-01-15T13:55:36;8.80;99.90
3053;DHT22;1536;51.098;6.414;2023-01-15T13:58:24;8.80;99.90
3053;DHT22;1536;51.098;6.414;2023-01-15T14:01:07;8.70;99.90
3053;DHT22;1536;51.098;6.414;2023-01-15T14:04:03;8.80;99.90
3053;DHT22;1536;51.098;6.414;2023-01-15T14:06:40;8.70;99.90
3053;DHT22;1536;51.098;6.414;2023-01-15T14:09:10;8.70;99.90
3053;DHT22;1536;51.098;6.414;2023-01-15T14:11:41;8.70;99.90
3053;DHT22;1536;51.098;6.414;2023-01-15T14:14:45;8.70;99.90
3053;DHT22;1536;51.098;6.414;2023-01-15T14:20:37;8.80;99.90
3053;DHT22;1536;51.098;6.414;2023-01-15T14:26:06;8.70;99.90
3053;DHT22;1536;51.098;6.414;2023-01-15T14:28:53;8.70;99.90
3053;DHT22;1536;51.098;6.414;2023-01-15T14:31:35;8.70;99.90
3053;DHT22;1536;51.098;6.414;2023-01-15T14:34:16;8.70;99.90
3053;DHT22;1536;51.098;6.414;2023-01-15T14:36:51;8.70;99.90
3053;DHT22;1536;51.098;6.414;2023-01-15T14:39:35;8.70;99.90
3053;DHT22;1536;51.098;6.414;2023-01-15T14:42:08;8.70;99.90
3053;DHT22;1536;51.098;6.414;2023-01-15T14:44:56;8.70;99.90
3053;DHT22;1536;51.098;6.414;2023-01-15T14:47:30;8.60;99.90
3053;DHT22;1536;51.098;6.414;2023-01-15T14:52:45;8.60;99.90
3053;DHT22;1536;51.098;6.414;2023-01-15T14:55:12;8.60;99.90
3053;DHT22;1536;51.098;6.414;2023-01-15T14:57:41;8.60;99.90
3053;DHT22;1536;51.098;6.414;2023-01-15T15:00:16;8.60;99.90
3053;DHT22;1536;51.098;6.414;2023-01-15T15:02:47;8.70;99.90
3053;DHT22;1536;51.098;6.414;2023-01-15T15:05:16;8.60;99.90
3053;DHT22;1536;51.098;6.414;2023-01-15T15:07:45;8.60;99.90
3053;DHT22;1536;51.098;6.414;2023-01-15T15:10:21;8.60;99.90
3053;DHT22;1536;51.098;6.414;2023-01-15T15:12:57;8.60;99.90
3053;DHT22;1536;51.098;6.414;2023-01-15T15:15:35;8.60;99.90
3053;DHT22;1536;51.098;6.414;2023-01-15T15:18:12;8.50;99.90
3053;DHT22;1536;51.098;6.414;2023-01-15T15:20:49;8.50;99.90
3053;DHT22;1536;51.098;6.414;2023-01-15T15:23:23;8.50;99.90
3053;DHT22;1536;51.098;6.414;2023-01-15T15:25:55;8.50;99.90
3053;DHT22;1536;51.098;6.414;2023-01-15T15:28:22;8.50;99.90
3053;DHT22;1536;51.098;6.414;2023-01-15T15:30:49;8.50;99.90
3053;DHT22;1536;51.098;6.414;2023-01-15T15:33:20;8.50;99.90
3053;DHT22;1536;51.098;6.414;2023-01-15T15:35:51;8.40;99.90
3053;DHT22;1536;51.098;6.414;2023-01-15T15:38:20;8.40;99.90
3053;DHT22;1536;51.098;6.414;2023-01-15T15:40:50;8.30;99.90
3053;DHT22;1536;51.098;6.414;2023-01-15T15:43:21;8.30;99.90
3053;DHT22;1536;51.098;6.414;2023-01-15T15:46:23;8.30;99.90
3053;DHT22;1536;51.098;6.414;2023-01-15T15:49:08;8.30;99.90
3053;DHT22;1536;51.098;6.414;2023-01-15T15:51:37;8.20;99.90
3053;DHT22;1536;51.098;6.414;2023-01-15T15:54:11;8.30;99.90
3053;DHT22;1536;51.098;6.414;2023-01-15T15:56:44;8.20;99.90
3053;DHT22;1536;51.098;6.414;2023-01-15T15:59:17;8.20;99.90
3053;DHT22;1536;51.098;6.414;2023-01-15T16:01:44;8.30;99.90
3053;DHT22;1536;51.098;6.414;2023-01-15T16:04:17;8.30;99.90
3053;DHT22;1536;51.098;6.414;2023-01-15T16:06:45;8.30;99.90
3053;DHT22;1536;51.098;6.414;2023-01-15T16:09:12;8.30;99.90
3053;DHT22;1536;51.098;6.414;2023-01-15T16:11:39;8.30;99.90
3053;DHT22;1536;51.098;6.414;2023-01-15T16:14:09;8.30;99.90
3053;DHT22;1536;51.098;6.414;2023-01-15T16:16:40;8.30;99.90
3053;DHT22;1536;51.098;6.414;2023-01-15T16:19:13;8.30;99.90
3053;DHT22;1536;51.098;6.414;2023-01-15T16:21:43;8.30;99.90
3053;DHT22;1536;51.098;6.414;2023-01-15T16:24:22;8.30;99.90
3053;DHT22;1536;51.098;6.414;2023-01-15T16:26:54;8.30;99.90
3053;DHT22;1536;51.098;6.414;2023-01-15T16:29:25;8.30;99.90
3053;DHT22;1536;51.098;6.414;2023-01-15T16:31:53;8.30;99.90
3053;DHT22;1536;51.098;6.414;2023-01-15T16:34:26;8.30;99.90
3053;DHT22;1536;51.098;6.414;2023-01-15T16:36:55;8.30;99.90
3053;DHT22;1536;51.098;6.414;2023-01-15T16:39:25;8.30;99.90
3053;DHT22;1536;51.098;6.414;2023-01-15T16:41:54;8.20;99.90
3053;DHT22;1536;51.098;6.414;2023-01-15T16:44:34;8.30;99.90
3053;DHT22;1536;51.098;6.414;2023-01-15T16:47:03;8.20;99.90
3053;DHT22;1536;51.098;6.414;2023-01-15T16:49:31;8.20;99.90
3053;DHT22;1536;51.098;6.414;2023-01-15T16:52:14;8.30;99.90
3053;DHT22;1536;51.098;6.414;2023-01-15T16:54:47;8.30;99.90
3053;DHT22;1536;51.098;6.414;2023-01-15T16:57:32;8.30;99.90
3053;DHT22;1536;51.098;6.414;2023-01-15T17:00:10;8.20;99.90
3053;DHT22;1536;51.098;6.414;2023-01-15T17:02:51;8.20;99.90
3053;DHT22;1536;51.098;6.414;2023-01-15T17:05:23;8.10;99.90